Bode, Iowa
Current Conditions -  °F | °C
As of 7:15 PM on Sunday 21 Dec 2014 (Local Time) from KAXA Reporting Station
Overcast Overcast  
Wind Chill: 27°   Ceiling: 800
Heat Index: 37°   Visibility: NA
Dew Point: 18°   Wind: 18mph
Humidity: 45%   Direction: 180°S
Pressure: 29.71"   Gusts: NA
Location:  42.87°N, 94.29°W
Report Text: KAXA 220115Z AUTO 18016KT BKN008 OVC011 03/M08 A2971 RMK AO2
Loading
Personal Weather Stations






























Interactive Weather Map New forecast layout! Learn more

10-Day Weather Forecast

Advertisements
Track Severe Weather on mobile